sensor_id;sensor_type;location;lat;lon;timestamp;P1;durP1;ratioP1;P2;durP2;ratioP2
68910;SDS011;55953;51.650;-0.522;2023-07-13T00:01:10;6.10;;;2.20;;
68910;SDS011;55953;51.650;-0.522;2023-07-13T00:03:41;4.70;;;1.60;;
68910;SDS011;55953;51.650;-0.522;2023-07-13T00:06:09;4.10;;;1.80;;
68910;SDS011;55953;51.650;-0.522;2023-07-13T00:08:38;6.60;;;2.00;;
68910;SDS011;55953;51.650;-0.522;2023-07-13T00:11:06;6.00;;;1.90;;
68910;SDS011;55953;51.650;-0.522;2023-07-13T00:13:34;6.20;;;1.90;;
68910;SDS011;55953;51.650;-0.522;2023-07-13T00:16:02;5.40;;;1.70;;
68910;SDS011;55953;51.650;-0.522;2023-07-13T00:18:30;5.50;;;1.90;;
68910;SDS011;55953;51.650;-0.522;2023-07-13T00:20:58;5.00;;;1.80;;
68910;SDS011;55953;51.650;-0.522;2023-07-13T00:23:37;5.70;;;2.10;;
68910;SDS011;55953;51.650;-0.522;2023-07-13T00:26:08;5.00;;;1.80;;
68910;SDS011;55953;51.650;-0.522;2023-07-13T00:28:39;5.10;;;1.90;;
68910;SDS011;55953;51.650;-0.522;2023-07-13T00:31:08;7.30;;;1.90;;
68910;SDS011;55953;51.650;-0.522;2023-07-13T00:33:37;6.70;;;2.20;;
68910;SDS011;55953;51.650;-0.522;2023-07-13T00:36:06;4.80;;;1.80;;
68910;SDS011;55953;51.650;-0.522;2023-07-13T00:38:34;4.80;;;1.90;;
68910;SDS011;55953;51.650;-0.522;2023-07-13T00:41:03;5.70;;;2.00;;
68910;SDS011;55953;51.650;-0.522;2023-07-13T00:43:32;6.40;;;2.20;;
68910;SDS011;55953;51.650;-0.522;2023-07-13T00:46:09;6.70;;;3.00;;
68910;SDS011;55953;51.650;-0.522;2023-07-13T00:48:42;4.80;;;1.60;;
68910;SDS011;55953;51.650;-0.522;2023-07-13T00:51:13;8.90;;;2.30;;
68910;SDS011;55953;51.650;-0.522;2023-07-13T00:53:44;7.10;;;2.10;;
68910;SDS011;55953;51.650;-0.522;2023-07-13T00:56:12;4.40;;;2.00;;
68910;SDS011;55953;51.650;-0.522;2023-07-13T00:58:40;5.80;;;1.80;;
68910;SDS011;55953;51.650;-0.522;2023-07-13T01:01:08;6.70;;;1.70;;
68910;SDS011;55953;51.650;-0.522;2023-07-13T01:03:36;5.50;;;2.10;;
68910;SDS011;55953;51.650;-0.522;2023-07-13T01:06:06;4.00;;;1.70;;
68910;SDS011;55953;51.650;-0.522;2023-07-13T01:08:34;4.60;;;1.80;;
68910;SDS011;55953;51.650;-0.522;2023-07-13T01:11:02;5.80;;;1.90;;
68910;SDS011;55953;51.650;-0.522;2023-07-13T01:13:30;7.60;;;1.90;;
68910;SDS011;55953;51.650;-0.522;2023-07-13T01:16:03;5.40;;;2.00;;
68910;SDS011;55953;51.650;-0.522;2023-07-13T01:18:40;5.50;;;1.80;;
68910;SDS011;55953;51.650;-0.522;2023-07-13T01:21:08;7.90;;;2.40;;
68910;SDS011;55953;51.650;-0.522;2023-07-13T01:23:36;6.50;;;1.90;;
68910;SDS011;55953;51.650;-0.522;2023-07-13T01:26:04;4.20;;;1.90;;
68910;SDS011;55953;51.650;-0.522;2023-07-13T01:28:32;4.10;;;1.90;;
68910;SDS011;55953;51.650;-0.522;2023-07-13T01:31:04;6.20;;;2.40;;
68910;SDS011;55953;51.650;-0.522;2023-07-13T01:33:32;6.30;;;2.30;;
68910;SDS011;55953;51.650;-0.522;2023-07-13T01:36:02;6.90;;;1.90;;
68910;SDS011;55953;51.650;-0.522;2023-07-13T01:38:29;6.50;;;1.90;;
68910;SDS011;55953;51.650;-0.522;2023-07-13T01:40:57;6.50;;;1.90;;
68910;SDS011;55953;51.650;-0.522;2023-07-13T01:43:25;5.80;;;1.70;;
68910;SDS011;55953;51.650;-0.522;2023-07-13T01:45:54;5.80;;;1.90;;
68910;SDS011;55953;51.650;-0.522;2023-07-13T01:48:42;7.50;;;2.00;;
68910;SDS011;55953;51.650;-0.522;2023-07-13T01:51:09;7.30;;;2.00;;
68910;SDS011;55953;51.650;-0.522;2023-07-13T01:53:37;7.50;;;2.10;;
68910;SDS011;55953;51.650;-0.522;2023-07-13T01:56:05;5.40;;;2.20;;
68910;SDS011;55953;51.650;-0.522;2023-07-13T01:58:33;5.10;;;2.00;;
68910;SDS011;55953;51.650;-0.522;2023-07-13T02:01:01;6.60;;;2.20;;
68910;SDS011;55953;51.650;-0.522;2023-07-13T02:03:29;6.50;;;1.90;;
68910;SDS011;55953;51.650;-0.522;2023-07-13T02:05:57;6.00;;;1.70;;
68910;SDS011;55953;51.650;-0.522;2023-07-13T02:08:25;6.20;;;2.10;;
68910;SDS011;55953;51.650;-0.522;2023-07-13T02:10:53;4.70;;;2.00;;
68910;SDS011;55953;51.650;-0.522;2023-07-13T02:13:21;5.30;;;1.80;;
68910;SDS011;55953;51.650;-0.522;2023-07-13T02:15:52;6.10;;;2.00;;
68910;SDS011;55953;51.650;-0.522;2023-07-13T02:20:47;5.10;;;2.10;;
68910;SDS011;55953;51.650;-0.522;2023-07-13T02:23:15;9.80;;;2.30;;
68910;SDS011;55953;51.650;-0.522;2023-07-13T02:25:43;10.40;;;2.10;;
68910;SDS011;55953;51.650;-0.522;2023-07-13T02:28:11;4.50;;;1.60;;
68910;SDS011;55953;51.650;-0.522;2023-07-13T02:30:39;5.40;;;2.00;;
68910;SDS011;55953;51.650;-0.522;2023-07-13T02:33:07;6.30;;;2.30;;
68910;SDS011;55953;51.650;-0.522;2023-07-13T02:35:36;6.10;;;2.10;;
68910;SDS011;55953;51.650;-0.522;2023-07-13T02:38:03;7.50;;;2.00;;
68910;SDS011;55953;51.650;-0.522;2023-07-13T02:40:31;4.30;;;1.80;;
68910;SDS011;55953;51.650;-0.522;2023-07-13T02:43:03;7.10;;;2.30;;
68910;SDS011;55953;51.650;-0.522;2023-07-13T02:45:31;6.60;;;2.40;;
68910;SDS011;55953;51.650;-0.522;2023-07-13T02:48:00;4.20;;;1.80;;
68910;SDS011;55953;51.650;-0.522;2023-07-13T02:50:28;7.80;;;2.00;;
68910;SDS011;55953;51.650;-0.522;2023-07-13T02:52:55;6.40;;;2.20;;
68910;SDS011;55953;51.650;-0.522;2023-07-13T02:55:23;8.50;;;2.30;;
68910;SDS011;55953;51.650;-0.522;2023-07-13T02:57:51;5.90;;;2.10;;
68910;SDS011;55953;51.650;-0.522;2023-07-13T03:00:19;6.20;;;2.00;;
68910;SDS011;55953;51.650;-0.522;2023-07-13T03:02:47;8.80;;;3.00;;
68910;SDS011;55953;51.650;-0.522;2023-07-13T03:05:16;8.00;;;2.10;;
68910;SDS011;55953;51.650;-0.522;2023-07-13T03:07:44;5.30;;;1.80;;
68910;SDS011;55953;51.650;-0.522;2023-07-13T03:10:12;8.00;;;2.20;;
68910;SDS011;55953;51.650;-0.522;2023-07-13T03:12:44;8.90;;;2.20;;
68910;SDS011;55953;51.650;-0.522;2023-07-13T03:15:21;5.00;;;2.30;;
68910;SDS011;55953;51.650;-0.522;2023-07-13T03:17:49;5.20;;;2.00;;
68910;SDS011;55953;51.650;-0.522;2023-07-13T03:20:18;6.50;;;2.10;;
68910;SDS011;55953;51.650;-0.522;2023-07-13T03:22:46;5.50;;;2.00;;
68910;SDS011;55953;51.650;-0.522;2023-07-13T03:25:14;5.20;;;2.00;;
68910;SDS011;55953;51.650;-0.522;2023-07-13T03:27:42;5.70;;;2.10;;
68910;SDS011;55953;51.650;-0.522;2023-07-13T03:30:11;4.80;;;2.00;;
68910;SDS011;55953;51.650;-0.522;2023-07-13T03:32:40;5.70;;;2.10;;
68910;SDS011;55953;51.650;-0.522;2023-07-13T03:35:09;8.50;;;2.40;;
68910;SDS011;55953;51.650;-0.522;2023-07-13T03:37:37;6.00;;;1.70;;
68910;SDS011;55953;51.650;-0.522;2023-07-13T03:40:13;7.50;;;2.30;;
68910;SDS011;55953;51.650;-0.522;2023-07-13T03:42:43;5.20;;;2.00;;
68910;SDS011;55953;51.650;-0.522;2023-07-13T03:45:11;6.90;;;2.20;;
68910;SDS011;55953;51.650;-0.522;2023-07-13T03:47:39;8.20;;;2.20;;
68910;SDS011;55953;51.650;-0.522;2023-07-13T03:50:07;8.80;;;2.50;;
68910;SDS011;55953;51.650;-0.522;2023-07-13T03:52:35;5.20;;;2.20;;
68910;SDS011;55953;51.650;-0.522;2023-07-13T03:55:04;6.10;;;2.30;;
68910;SDS011;55953;51.650;-0.522;2023-07-13T03:57:33;6.10;;;1.90;;
68910;SDS011;55953;51.650;-0.522;2023-07-13T04:00:06;7.00;;;2.10;;
68910;SDS011;55953;51.650;-0.522;2023-07-13T04:02:42;9.70;;;2.30;;
68910;SDS011;55953;51.650;-0.522;2023-07-13T04:05:10;6.50;;;2.20;;
68910;SDS011;55953;51.650;-0.522;2023-07-13T04:07:38;4.10;;;1.80;;
68910;SDS011;55953;51.650;-0.522;2023-07-13T04:10:07;8.50;;;2.60;;
68910;SDS011;55953;51.650;-0.522;2023-07-13T04:12:36;7.10;;;2.50;;
68910;SDS011;55953;51.650;-0.522;2023-07-13T04:15:04;6.10;;;2.00;;
68910;SDS011;55953;51.650;-0.522;2023-07-13T04:17:33;5.80;;;2.00;;
68910;SDS011;55953;51.650;-0.522;2023-07-13T04:20:01;5.70;;;2.30;;
68910;SDS011;55953;51.650;-0.522;2023-07-13T04:22:28;6.60;;;2.00;;
68910;SDS011;55953;51.650;-0.522;2023-07-13T04:24:56;5.40;;;2.30;;
68910;SDS011;55953;51.650;-0.522;2023-07-13T04:27:24;6.90;;;2.40;;
68910;SDS011;55953;51.650;-0.522;2023-07-13T04:29:52;6.40;;;2.00;;
68910;SDS011;55953;51.650;-0.522;2023-07-13T04:32:20;6.60;;;1.90;;
68910;SDS011;55953;51.650;-0.522;2023-07-13T04:34:48;5.80;;;2.40;;
68910;SDS011;55953;51.650;-0.522;2023-07-13T04:37:20;8.50;;;2.40;;
68910;SDS011;55953;51.650;-0.522;2023-07-13T04:39:48;5.80;;;2.30;;
68910;SDS011;55953;51.650;-0.522;2023-07-13T04:42:16;4.70;;;2.00;;
68910;SDS011;55953;51.650;-0.522;2023-07-13T04:44:48;4.70;;;2.00;;
68910;SDS011;55953;51.650;-0.522;2023-07-13T04:47:19;7.20;;;2.40;;
68910;SDS011;55953;51.650;-0.522;2023-07-13T04:49:47;8.40;;;2.50;;
68910;SDS011;55953;51.650;-0.522;2023-07-13T04:52:15;7.90;;;2.10;;
68910;SDS011;55953;51.650;-0.522;2023-07-13T04:54:43;6.50;;;2.00;;
68910;SDS011;55953;51.650;-0.522;2023-07-13T04:57:11;6.30;;;2.70;;
68910;SDS011;55953;51.650;-0.522;2023-07-13T04:59:38;8.10;;;2.20;;
68910;SDS011;55953;51.650;-0.522;2023-07-13T05:02:07;4.20;;;2.10;;
68910;SDS011;55953;51.650;-0.522;2023-07-13T05:04:35;5.00;;;2.00;;
68910;SDS011;55953;51.650;-0.522;2023-07-13T05:07:03;7.40;;;2.20;;
68910;SDS011;55953;51.650;-0.522;2023-07-13T05:09:32;7.10;;;2.30;;
68910;SDS011;55953;51.650;-0.522;2023-07-13T05:12:00;7.80;;;2.50;;
68910;SDS011;55953;51.650;-0.522;2023-07-13T05:14:28;5.90;;;1.90;;
68910;SDS011;55953;51.650;-0.522;2023-07-13T05:16:56;5.80;;;2.40;;
68910;SDS011;55953;51.650;-0.522;2023-07-13T05:19:24;4.00;;;1.90;;
68910;SDS011;55953;51.650;-0.522;2023-07-13T05:21:52;5.80;;;2.40;;
68910;SDS011;55953;51.650;-0.522;2023-07-13T05:24:20;6.40;;;2.40;;
68910;SDS011;55953;51.650;-0.522;2023-07-13T05:26:52;7.40;;;2.20;;
68910;SDS011;55953;51.650;-0.522;2023-07-13T05:29:21;5.80;;;2.30;;
68910;SDS011;55953;51.650;-0.522;2023-07-13T05:31:50;5.90;;;2.30;;
68910;SDS011;55953;51.650;-0.522;2023-07-13T05:34:18;7.40;;;2.50;;
68910;SDS011;55953;51.650;-0.522;2023-07-13T05:36:48;5.50;;;2.20;;
68910;SDS011;55953;51.650;-0.522;2023-07-13T05:39:16;5.30;;;2.10;;
68910;SDS011;55953;51.650;-0.522;2023-07-13T05:41:44;4.30;;;2.30;;
68910;SDS011;55953;51.650;-0.522;2023-07-13T05:44:12;7.30;;;2.40;;
68910;SDS011;55953;51.650;-0.522;2023-07-13T05:46:40;4.40;;;2.20;;
68910;SDS011;55953;51.650;-0.522;2023-07-13T05:49:08;6.20;;;2.20;;
68910;SDS011;55953;51.650;-0.522;2023-07-13T05:51:35;4.00;;;2.00;;
68910;SDS011;55953;51.650;-0.522;2023-07-13T05:54:03;4.30;;;2.20;;
68910;SDS011;55953;51.650;-0.522;2023-07-13T05:56:31;7.50;;;2.30;;
68910;SDS011;55953;51.650;-0.522;2023-07-13T05:58:59;7.40;;;2.30;;
68910;SDS011;55953;51.650;-0.522;2023-07-13T06:01:26;4.50;;;1.70;;
68910;SDS011;55953;51.650;-0.522;2023-07-13T06:03:54;5.10;;;1.80;;
68910;SDS011;55953;51.650;-0.522;2023-07-13T06:06:22;4.20;;;1.90;;
68910;SDS011;55953;51.650;-0.522;2023-07-13T06:08:51;5.90;;;2.30;;
68910;SDS011;55953;51.650;-0.522;2023-07-13T06:11:22;4.00;;;1.90;;
68910;SDS011;55953;51.650;-0.522;2023-07-13T06:13:51;5.40;;;1.80;;
68910;SDS011;55953;51.650;-0.522;2023-07-13T06:16:19;6.20;;;2.10;;
68910;SDS011;55953;51.650;-0.522;2023-07-13T06:18:47;5.90;;;2.00;;
68910;SDS011;55953;51.650;-0.522;2023-07-13T06:21:20;4.00;;;1.80;;
68910;SDS011;55953;51.650;-0.522;2023-07-13T06:23:51;6.60;;;2.00;;
68910;SDS011;55953;51.650;-0.522;2023-07-13T06:26:22;6.40;;;1.90;;
68910;SDS011;55953;51.650;-0.522;2023-07-13T06:28:52;6.60;;;2.10;;
68910;SDS011;55953;51.650;-0.522;2023-07-13T06:31:20;3.20;;;1.60;;
68910;SDS011;55953;51.650;-0.522;2023-07-13T06:33:48;7.60;;;1.90;;
68910;SDS011;55953;51.650;-0.522;2023-07-13T06:36:16;7.40;;;1.90;;
68910;SDS011;55953;51.650;-0.522;2023-07-13T06:38:43;5.90;;;1.80;;
68910;SDS011;55953;51.650;-0.522;2023-07-13T06:41:11;4.90;;;1.90;;
68910;SDS011;55953;51.650;-0.522;2023-07-13T06:43:40;4.70;;;2.10;;
68910;SDS011;55953;51.650;-0.522;2023-07-13T06:46:08;6.30;;;2.10;;
68910;SDS011;55953;51.650;-0.522;2023-07-13T06:48:36;7.20;;;2.20;;
68910;SDS011;55953;51.650;-0.522;2023-07-13T06:51:04;5.70;;;1.90;;
68910;SDS011;55953;51.650;-0.522;2023-07-13T06:53:32;6.00;;;2.00;;
68910;SDS011;55953;51.650;-0.522;2023-07-13T06:56:00;6.80;;;1.90;;
68910;SDS011;55953;51.650;-0.522;2023-07-13T06:58:28;6.30;;;2.10;;
68910;SDS011;55953;51.650;-0.522;2023-07-13T07:00:56;9.10;;;2.20;;
68910;SDS011;55953;51.650;-0.522;2023-07-13T07:03:24;5.20;;;2.20;;
68910;SDS011;55953;51.650;-0.522;2023-07-13T07:05:52;6.40;;;1.90;;
68910;SDS011;55953;51.650;-0.522;2023-07-13T07:08:20;5.80;;;1.90;;
68910;SDS011;55953;51.650;-0.522;2023-07-13T07:10:48;7.30;;;2.10;;
68910;SDS011;55953;51.650;-0.522;2023-07-13T07:13:21;3.80;;;1.70;;
68910;SDS011;55953;51.650;-0.522;2023-07-13T07:15:49;5.60;;;2.00;;
68910;SDS011;55953;51.650;-0.522;2023-07-13T07:18:17;6.40;;;1.90;;
68910;SDS011;55953;51.650;-0.522;2023-07-13T07:20:45;3.70;;;1.90;;
68910;SDS011;55953;51.650;-0.522;2023-07-13T07:23:13;4.60;;;1.90;;
68910;SDS011;55953;51.650;-0.522;2023-07-13T07:25:43;7.70;;;2.20;;
68910;SDS011;55953;51.650;-0.522;2023-07-13T07:28:14;4.10;;;2.00;;
68910;SDS011;55953;51.650;-0.522;2023-07-13T07:30:49;4.80;;;1.70;;
68910;SDS011;55953;51.650;-0.522;2023-07-13T07:33:41;3.80;;;1.80;;
68910;SDS011;55953;51.650;-0.522;2023-07-13T07:36:09;3.20;;;1.90;;
68910;SDS011;55953;51.650;-0.522;2023-07-13T07:38:40;7.00;;;2.00;;
68910;SDS011;55953;51.650;-0.522;2023-07-13T07:41:08;5.20;;;2.00;;
68910;SDS011;55953;51.650;-0.522;2023-07-13T07:43:38;4.20;;;1.80;;
68910;SDS011;55953;51.650;-0.522;2023-07-13T07:46:06;6.70;;;2.00;;
68910;SDS011;55953;51.650;-0.522;2023-07-13T07:48:34;6.10;;;1.90;;
68910;SDS011;55953;51.650;-0.522;2023-07-13T07:51:03;4.20;;;2.40;;
68910;SDS011;55953;51.650;-0.522;2023-07-13T07:53:30;3.80;;;1.80;;
68910;SDS011;55953;51.650;-0.522;2023-07-13T07:56:00;4.70;;;1.80;;
68910;SDS011;55953;51.650;-0.522;2023-07-13T07:58:48;4.20;;;1.90;;
68910;SDS011;55953;51.650;-0.522;2023-07-13T08:01:19;5.40;;;1.90;;
68910;SDS011;55953;51.650;-0.522;2023-07-13T08:06:21;4.50;;;2.00;;
68910;SDS011;55953;51.650;-0.522;2023-07-13T08:08:52;6.50;;;2.10;;
68910;SDS011;55953;51.650;-0.522;2023-07-13T08:11:21;5.30;;;1.70;;
68910;SDS011;55953;51.650;-0.522;2023-07-13T08:13:52;4.90;;;1.60;;
68910;SDS011;55953;51.650;-0.522;2023-07-13T08:16:23;5.30;;;2.00;;
68910;SDS011;55953;51.650;-0.522;2023-07-13T08:18:51;5.30;;;1.70;;
68910;SDS011;55953;51.650;-0.522;2023-07-13T08:21:19;6.00;;;2.40;;
68910;SDS011;55953;51.650;-0.522;2023-07-13T08:23:48;5.10;;;2.00;;
68910;SDS011;55953;51.650;-0.522;2023-07-13T08:26:15;4.70;;;1.80;;
68910;SDS011;55953;51.650;-0.522;2023-07-13T08:28:43;6.10;;;2.30;;
68910;SDS011;55953;51.650;-0.522;2023-07-13T08:31:11;5.40;;;2.20;;
68910;SDS011;55953;51.650;-0.522;2023-07-13T08:33:39;7.90;;;3.20;;
68910;SDS011;55953;51.650;-0.522;2023-07-13T08:36:08;7.90;;;3.10;;
68910;SDS011;55953;51.650;-0.522;2023-07-13T08:38:36;5.40;;;2.00;;
68910;SDS011;55953;51.650;-0.522;2023-07-13T08:41:14;7.60;;;2.40;;
68910;SDS011;55953;51.650;-0.522;2023-07-13T08:43:47;4.30;;;2.00;;
68910;SDS011;55953;51.650;-0.522;2023-07-13T08:46:23;6.00;;;2.70;;
68910;SDS011;55953;51.650;-0.522;2023-07-13T08:49:08;6.50;;;2.50;;
68910;SDS011;55953;51.650;-0.522;2023-07-13T08:51:55;6.10;;;2.80;;
68910;SDS011;55953;51.650;-0.522;2023-07-13T08:54:32;4.00;;;2.10;;
68910;SDS011;55953;51.650;-0.522;2023-07-13T08:57:18;4.90;;;2.10;;
68910;SDS011;55953;51.650;-0.522;2023-07-13T08:59:49;4.70;;;2.50;;
68910;SDS011;55953;51.650;-0.522;2023-07-13T09:02:41;5.00;;;2.10;;
68910;SDS011;55953;51.650;-0.522;2023-07-13T09:05:22;4.80;;;2.10;;
68910;SDS011;55953;51.650;-0.522;2023-07-13T09:08:09;5.90;;;2.10;;
68910;SDS011;55953;51.650;-0.522;2023-07-13T09:11:14;3.20;;;1.60;;
68910;SDS011;55953;51.650;-0.522;2023-07-13T09:14:05;3.70;;;1.80;;
68910;SDS011;55953;51.650;-0.522;2023-07-13T09:16:44;3.70;;;1.70;;
68910;SDS011;55953;51.650;-0.522;2023-07-13T09:21:52;3.00;;;1.60;;
68910;SDS011;55953;51.650;-0.522;2023-07-13T09:24:41;5.60;;;1.60;;
68910;SDS011;55953;51.650;-0.522;2023-07-13T09:27:27;4.00;;;1.70;;
68910;SDS011;55953;51.650;-0.522;2023-07-13T09:30:29;6.40;;;1.80;;
68910;SDS011;55953;51.650;-0.522;2023-07-13T09:33:01;5.40;;;1.70;;
68910;SDS011;55953;51.650;-0.522;2023-07-13T09:35:29;3.70;;;1.40;;
68910;SDS011;55953;51.650;-0.522;2023-07-13T09:38:03;3.40;;;1.40;;
68910;SDS011;55953;51.650;-0.522;2023-07-13T09:44:08;3.00;;;1.40;;
68910;SDS011;55953;51.650;-0.522;2023-07-13T09:46:43;5.00;;;1.40;;
68910;SDS011;55953;51.650;-0.522;2023-07-13T09:49:13;5.50;;;1.90;;
68910;SDS011;55953;51.650;-0.522;2023-07-13T09:51:41;4.00;;;1.70;;
68910;SDS011;55953;51.650;-0.522;2023-07-13T09:54:29;6.00;;;2.00;;
68910;SDS011;55953;51.650;-0.522;2023-07-13T09:56:58;4.20;;;1.70;;
68910;SDS011;55953;51.650;-0.522;2023-07-13T09:59:31;5.90;;;1.60;;
68910;SDS011;55953;51.650;-0.522;2023-07-13T10:02:01;2.50;;;1.50;;
68910;SDS011;55953;51.650;-0.522;2023-07-13T10:04:32;5.20;;;1.70;;
68910;SDS011;55953;51.650;-0.522;2023-07-13T10:07:09;3.80;;;1.30;;
68910;SDS011;55953;51.650;-0.522;2023-07-13T10:09:59;3.10;;;1.50;;
68910;SDS011;55953;51.650;-0.522;2023-07-13T10:12:30;3.70;;;1.40;;
68910;SDS011;55953;51.650;-0.522;2023-07-13T10:15:09;2.80;;;1.50;;
68910;SDS011;55953;51.650;-0.522;2023-07-13T10:17:53;4.20;;;1.60;;
68910;SDS011;55953;51.650;-0.522;2023-07-13T10:20:24;3.60;;;1.40;;
68910;SDS011;55953;51.650;-0.522;2023-07-13T10:23:11;5.40;;;1.70;;
68910;SDS011;55953;51.650;-0.522;2023-07-13T10:25:46;2.40;;;1.30;;
68910;SDS011;55953;51.650;-0.522;2023-07-13T10:28:30;4.50;;;1.50;;
68910;SDS011;55953;51.650;-0.522;2023-07-13T10:31:06;3.60;;;1.40;;
68910;SDS011;55953;51.650;-0.522;2023-07-13T10:33:40;4.10;;;1.60;;
68910;SDS011;55953;51.650;-0.522;2023-07-13T10:36:27;4.80;;;1.40;;
68910;SDS011;55953;51.650;-0.522;2023-07-13T10:39:03;3.40;;;1.60;;
68910;SDS011;55953;51.650;-0.522;2023-07-13T10:41:39;3.20;;;1.60;;
68910;SDS011;55953;51.650;-0.522;2023-07-13T10:44:30;2.90;;;1.30;;
68910;SDS011;55953;51.650;-0.522;2023-07-13T10:47:03;3.80;;;1.40;;
68910;SDS011;55953;51.650;-0.522;2023-07-13T10:49:35;2.90;;;1.00;;
68910;SDS011;55953;51.650;-0.522;2023-07-13T10:52:04;4.60;;;1.40;;
68910;SDS011;55953;51.650;-0.522;2023-07-13T10:54:33;4.80;;;1.40;;
68910;SDS011;55953;51.650;-0.522;2023-07-13T10:57:18;3.20;;;1.50;;
68910;SDS011;55953;51.650;-0.522;2023-07-13T11:00:15;3.20;;;1.50;;
68910;SDS011;55953;51.650;-0.522;2023-07-13T11:02:56;2.80;;;1.30;;
68910;SDS011;55953;51.650;-0.522;2023-07-13T11:05:33;2.20;;;1.40;;
68910;SDS011;55953;51.650;-0.522;2023-07-13T11:08:13;3.10;;;1.60;;
68910;SDS011;55953;51.650;-0.522;2023-07-13T11:10:53;3.70;;;1.40;;
68910;SDS011;55953;51.650;-0.522;2023-07-13T11:19:08;3.00;;;1.30;;
68910;SDS011;55953;51.650;-0.522;2023-07-13T11:24:59;1.50;;;1.10;;
68910;SDS011;55953;51.650;-0.522;2023-07-13T11:30:21;4.10;;;1.30;;
68910;SDS011;55953;51.650;-0.522;2023-07-13T11:38:37;3.90;;;1.50;;
68910;SDS011;55953;51.650;-0.522;2023-07-13T11:41:26;4.40;;;1.50;;
68910;SDS011;55953;51.650;-0.522;2023-07-13T11:44:13;4.20;;;1.40;;
68910;SDS011;55953;51.650;-0.522;2023-07-13T11:46:50;4.10;;;1.80;;
68910;SDS011;55953;51.650;-0.522;2023-07-13T11:49:25;2.50;;;1.70;;
68910;SDS011;55953;51.650;-0.522;2023-07-13T11:52:00;2.70;;;1.40;;
68910;SDS011;55953;51.650;-0.522;2023-07-13T11:54:41;3.70;;;1.70;;
68910;SDS011;55953;51.650;-0.522;2023-07-13T11:57:33;3.40;;;1.50;;
68910;SDS011;55953;51.650;-0.522;2023-07-13T12:00:28;4.20;;;1.60;;
68910;SDS011;55953;51.650;-0.522;2023-07-13T12:03:02;3.40;;;1.50;;
68910;SDS011;55953;51.650;-0.522;2023-07-13T12:05:33;2.70;;;1.40;;
68910;SDS011;55953;51.650;-0.522;2023-07-13T12:08:09;3.10;;;1.50;;
68910;SDS011;55953;51.650;-0.522;2023-07-13T12:11:00;3.90;;;1.40;;
68910;SDS011;55953;51.650;-0.522;2023-07-13T12:13:37;2.30;;;1.40;;
68910;SDS011;55953;51.650;-0.522;2023-07-13T12:16:16;4.00;;;1.70;;
68910;SDS011;55953;51.650;-0.522;2023-07-13T12:18:52;2.70;;;1.30;;
68910;SDS011;55953;51.650;-0.522;2023-07-13T12:21:26;2.90;;;1.40;;
68910;SDS011;55953;51.650;-0.522;2023-07-13T12:23:58;5.40;;;1.40;;
68910;SDS011;55953;51.650;-0.522;2023-07-13T12:26:28;2.10;;;1.30;;
68910;SDS011;55953;51.650;-0.522;2023-07-13T12:29:00;3.60;;;1.50;;
68910;SDS011;55953;51.650;-0.522;2023-07-13T12:31:36;2.80;;;1.30;;
68910;SDS011;55953;51.650;-0.522;2023-07-13T12:34:12;2.70;;;1.30;;
68910;SDS011;55953;51.650;-0.522;2023-07-13T12:36:56;3.10;;;1.40;;
68910;SDS011;55953;51.650;-0.522;2023-07-13T12:39:34;2.20;;;1.40;;
68910;SDS011;55953;51.650;-0.522;2023-07-13T12:42:21;2.50;;;1.30;;
68910;SDS011;55953;51.650;-0.522;2023-07-13T12:45:16;2.50;;;1.30;;
68910;SDS011;55953;51.650;-0.522;2023-07-13T12:47:49;2.80;;;1.50;;
68910;SDS011;55953;51.650;-0.522;2023-07-13T12:50:23;2.30;;;1.40;;
68910;SDS011;55953;51.650;-0.522;2023-07-13T12:53:01;2.20;;;1.30;;
68910;SDS011;55953;51.650;-0.522;2023-07-13T12:55:31;3.60;;;1.60;;
68910;SDS011;55953;51.650;-0.522;2023-07-13T12:58:03;1.90;;;1.10;;
68910;SDS011;55953;51.650;-0.522;2023-07-13T13:00:35;2.80;;;1.30;;
68910;SDS011;55953;51.650;-0.522;2023-07-13T13:06:45;3.40;;;1.80;;
68910;SDS011;55953;51.650;-0.522;2023-07-13T13:08:58;3.60;;;1.30;;
68910;SDS011;55953;51.650;-0.522;2023-07-13T13:11:28;3.80;;;1.40;;
68910;SDS011;55953;51.650;-0.522;2023-07-13T13:13:57;3.30;;;1.50;;
68910;SDS011;55953;51.650;-0.522;2023-07-13T13:18:55;2.90;;;1.40;;
68910;SDS011;55953;51.650;-0.522;2023-07-13T13:21:26;3.60;;;2.00;;
68910;SDS011;55953;51.650;-0.522;2023-07-13T13:23:54;3.20;;;1.80;;
68910;SDS011;55953;51.650;-0.522;2023-07-13T13:26:23;3.40;;;1.80;;
68910;SDS011;55953;51.650;-0.522;2023-07-13T13:28:51;4.50;;;1.40;;
68910;SDS011;55953;51.650;-0.522;2023-07-13T13:31:18;3.80;;;1.50;;
68910;SDS011;55953;51.650;-0.522;2023-07-13T13:33:46;3.50;;;1.70;;
68910;SDS011;55953;51.650;-0.522;2023-07-13T13:36:17;3.40;;;1.50;;
68910;SDS011;55953;51.650;-0.522;2023-07-13T13:38:48;4.00;;;1.50;;
68910;SDS011;55953;51.650;-0.522;2023-07-13T13:41:17;4.00;;;1.40;;
68910;SDS011;55953;51.650;-0.522;2023-07-13T13:43:45;2.80;;;1.40;;
68910;SDS011;55953;51.650;-0.522;2023-07-13T13:46:24;3.30;;;1.60;;
68910;SDS011;55953;51.650;-0.522;2023-07-13T13:48:57;4.00;;;1.80;;
68910;SDS011;55953;51.650;-0.522;2023-07-13T13:51:25;3.50;;;1.50;;
68910;SDS011;55953;51.650;-0.522;2023-07-13T13:53:53;3.50;;;1.90;;
68910;SDS011;55953;51.650;-0.522;2023-07-13T13:56:21;4.50;;;1.60;;
68910;SDS011;55953;51.650;-0.522;2023-07-13T13:58:49;6.10;;;1.90;;
68910;SDS011;55953;51.650;-0.522;2023-07-13T14:01:19;3.20;;;1.80;;
68910;SDS011;55953;51.650;-0.522;2023-07-13T14:03:50;3.80;;;1.50;;
68910;SDS011;55953;51.650;-0.522;2023-07-13T14:06:21;3.50;;;1.70;;
68910;SDS011;55953;51.650;-0.522;2023-07-13T14:08:49;3.50;;;1.70;;
68910;SDS011;55953;51.650;-0.522;2023-07-13T14:11:20;3.70;;;1.70;;
68910;SDS011;55953;51.650;-0.522;2023-07-13T14:13:52;4.70;;;2.00;;
68910;SDS011;55953;51.650;-0.522;2023-07-13T14:16:26;2.90;;;1.70;;
68910;SDS011;55953;51.650;-0.522;2023-07-13T14:18:57;7.10;;;2.00;;
68910;SDS011;55953;51.650;-0.522;2023-07-13T14:21:29;3.70;;;1.40;;
68910;SDS011;55953;51.650;-0.522;2023-07-13T14:23:57;4.10;;;1.50;;
68910;SDS011;55953;51.650;-0.522;2023-07-13T14:26:26;1.70;;;1.10;;
68910;SDS011;55953;51.650;-0.522;2023-07-13T14:28:56;2.80;;;1.40;;
68910;SDS011;55953;51.650;-0.522;2023-07-13T14:31:27;2.70;;;1.30;;
68910;SDS011;55953;51.650;-0.522;2023-07-13T14:33:58;3.50;;;1.50;;
68910;SDS011;55953;51.650;-0.522;2023-07-13T14:36:31;3.00;;;1.50;;
68910;SDS011;55953;51.650;-0.522;2023-07-13T14:39:11;4.50;;;1.70;;
68910;SDS011;55953;51.650;-0.522;2023-07-13T14:41:44;3.30;;;1.60;;
68910;SDS011;55953;51.650;-0.522;2023-07-13T14:44:14;5.20;;;1.60;;
68910;SDS011;55953;51.650;-0.522;2023-07-13T14:46:44;4.30;;;1.40;;
68910;SDS011;55953;51.650;-0.522;2023-07-13T14:49:49;4.30;;;1.40;;
68910;SDS011;55953;51.650;-0.522;2023-07-13T14:52:19;2.70;;;1.40;;
68910;SDS011;55953;51.650;-0.522;2023-07-13T14:54:51;3.30;;;1.50;;
68910;SDS011;55953;51.650;-0.522;2023-07-13T14:57:20;2.90;;;1.40;;
68910;SDS011;55953;51.650;-0.522;2023-07-13T14:59:49;3.20;;;1.60;;
68910;SDS011;55953;51.650;-0.522;2023-07-13T15:02:29;4.30;;;1.70;;
68910;SDS011;55953;51.650;-0.522;2023-07-13T15:05:01;9.10;;;2.40;;
68910;SDS011;55953;51.650;-0.522;2023-07-13T15:07:31;3.10;;;1.50;;
68910;SDS011;55953;51.650;-0.522;2023-07-13T15:10:00;5.00;;;1.70;;
68910;SDS011;55953;51.650;-0.522;2023-07-13T15:12:28;4.10;;;1.90;;
68910;SDS011;55953;51.650;-0.522;2023-07-13T15:14:56;4.50;;;2.10;;
68910;SDS011;55953;51.650;-0.522;2023-07-13T15:17:30;3.10;;;1.70;;
68910;SDS011;55953;51.650;-0.522;2023-07-13T15:20:03;3.00;;;1.70;;
68910;SDS011;55953;51.650;-0.522;2023-07-13T15:22:38;6.00;;;1.80;;
68910;SDS011;55953;51.650;-0.522;2023-07-13T15:25:15;6.30;;;2.10;;
68910;SDS011;55953;51.650;-0.522;2023-07-13T15:27:46;3.10;;;1.70;;
68910;SDS011;55953;51.650;-0.522;2023-07-13T15:30:14;4.30;;;1.90;;
68910;SDS011;55953;51.650;-0.522;2023-07-13T15:32:44;6.80;;;2.00;;
68910;SDS011;55953;51.650;-0.522;2023-07-13T15:35:18;4.00;;;1.90;;